Time;durP1;ratioP1;P1;durP2;ratioP2;P2;SDS_P1;SDS_P2;PMS_P1;PMS_P2;Temp;Humidity;BMP_temperature;BMP_pressure;BME280_temperature;BME280_humidity;BME280_pressure;Samples;Min_cycle;Max_cycle;Signal;HPM_P1;HPM_P2
2022/08/16 00:07:44;;;;;;;16.00;11.00;;;;;;;24.35;97.38;99709.11;657598;1277;22913;-81
2022/08/16 00:22:47;;;;;;;17.10;12.90;;;;;;;24.21;97.43;99709.48;656993;1277;26667;-82
2022/08/16 00:37:55;;;;;;;17.90;13.30;;;;;;;24.06;98.17;99707.07;657924;1277;24105;-82
2022/08/16 00:53:03;;;;;;;15.40;11.30;;;;;;;23.86;99.60;99706.18;658005;1277;22561;-82
2022/08/16 01:08:10;;;;;;;14.80;12.00;;;;;;;23.67;100.00;99704.88;658063;1277;22625;-82
2022/08/16 01:23:56;;;;;;;14.10;12.10;;;;;;;23.59;100.00;99695.66;657167;1277;22544;-82
2022/08/16 01:39:11;;;;;;;14.40;11.80;;;;;;;23.56;100.00;99697.59;657713;1278;22916;-82
2022/08/16 01:54:16;;;;;;;21.50;15.20;;;;;;;23.42;100.00;99689.41;657682;1277;25392;-82
2022/08/16 02:09:36;;;;;;;17.70;12.70;;;;;;;23.17;100.00;99689.64;656394;1277;24293;-82
2022/08/16 02:24:41;;;;;;;18.00;13.10;;;;;;;22.91;100.00;99678.55;657606;1277;22582;-83
2022/08/16 02:39:48;;;;;;;20.00;14.00;;;;;;;22.75;100.00;99668.77;658595;1277;25353;-83
2022/08/16 02:54:57;;;;;;;19.40;14.50;;;;;;;22.65;100.00;99672.91;658863;1277;26580;-83
2022/08/16 03:10:03;;;;;;;21.80;14.70;;;;;;;22.54;100.00;99674.36;658404;1277;24207;-81
2022/08/16 03:25:10;;;;;;;18.40;15.40;;;;;;;22.52;100.00;99679.00;657513;1277;25022;-82
2022/08/16 03:40:24;;;;;;;21.90;15.10;;;;;;;22.57;100.00;99683.73;657061;1278;26659;-82
2022/08/16 03:55:36;;;;;;;19.00;13.90;;;;;;;22.56;100.00;99694.98;658274;1277;22697;-82
2022/08/16 04:10:48;;;;;;;21.90;16.20;;;;;;;22.48;100.00;99709.64;658600;1277;22709;-82
2022/08/16 04:25:54;;;;;;;17.00;13.90;;;;;;;22.45;100.00;99725.55;658013;1277;22727;-83
2022/08/16 04:40:58;;;;;;;16.40;14.70;;;;;;;22.62;100.00;99734.55;657604;1277;24336;-82
2022/08/16 04:56:02;;;;;;;17.90;14.20;;;;;;;22.84;100.00;99738.05;658501;1276;25285;-82
2022/08/16 05:11:16;;;;;;;17.90;14.20;;;;;;;23.25;100.00;99729.02;657032;1277;25374;-83
2022/08/16 05:26:20;;;;;;;18.20;13.40;;;;;;;23.77;100.00;99730.42;657005;1277;22700;-82
2022/08/16 05:41:24;;;;;;;17.60;12.80;;;;;;;24.50;100.00;99743.03;656198;1277;24473;-83
2022/08/16 05:56:27;;;;;;;15.00;13.40;;;;;;;25.02;100.00;99763.14;656690;1277;23575;-83
2022/08/16 06:11:31;;;;;;;17.20;12.80;;;;;;;24.96;100.00;99759.15;657894;1277;25452;-83
2022/08/16 06:26:36;;;;;;;17.60;13.70;;;;;;;25.08;100.00;99763.89;658573;1276;25270;-81
2022/08/16 06:42:00;;;;;;;17.10;12.80;;;;;;;24.67;100.00;99771.73;659293;1277;25281;-83
2022/08/16 06:57:20;;;;;;;16.20;13.90;;;;;;;24.54;100.00;99779.58;657737;1277;25332;-83
2022/08/16 07:12:24;;;;;;;16.20;14.10;;;;;;;24.70;100.00;99775.90;657839;1277;22709;-81
2022/08/16 07:27:49;;;;;;;14.50;11.70;;;;;;;25.59;100.00;99776.36;658199;1277;24241;-82
2022/08/16 07:42:56;;;;;;;14.80;13.10;;;;;;;27.04;100.00;99789.32;657390;1277;24303;-83
2022/08/16 07:58:00;;;;;;;16.00;13.10;;;;;;;28.05;99.69;99796.98;656802;1277;22544;-81
2022/08/16 08:13:07;;;;;;;16.30;11.80;;;;;;;28.88;95.75;99800.84;656666;1277;24453;-83
2022/08/16 08:28:13;;;;;;;17.00;13.10;;;;;;;29.88;90.80;99804.48;657649;1277;24499;-81
2022/08/16 08:43:19;;;;;;;17.50;12.00;;;;;;;30.34;86.17;99800.77;657564;1278;139096;-82
2022/08/16 08:58:26;;;;;;;11.30;10.10;;;;;;;30.94;83.18;99806.42;657455;1277;139504;-81
2022/08/16 09:14:04;;;;;;;13.10;9.40;;;;;;;32.18;78.47;99796.61;657668;1277;140211;-80
2022/08/16 09:29:08;;;;;;;12.70;9.20;;;;;;;33.00;74.96;99796.36;657584;1277;139344;-80
2022/08/16 09:44:23;;;;;;;10.60;9.20;;;;;;;33.78;70.06;99805.48;658094;1277;1517361;-81
2022/08/16 09:59:46;;;;;;;9.90;8.60;;;;;;;34.52;67.90;99793.08;657720;1275;140255;-81
2022/08/16 10:14:58;;;;;;;12.00;8.70;;;;;;;35.26;65.28;99796.41;656715;1277;138588;-83
2022/08/16 10:30:05;;;;;;;8.30;6.70;;;;;;;34.87;60.29;99803.91;657336;1277;139199;-86
2022/08/16 10:45:31;;;;;;;12.70;7.10;;;;;;;34.62;59.41;99803.44;657084;1277;138983;-85
2022/08/16 11:00:39;;;;;;;9.70;6.70;;;;;;;34.52;59.21;99792.10;658512;1277;138243;-84
2022/08/16 11:15:44;;;;;;;7.90;6.70;;;;;;;35.31;58.65;99784.52;657187;1277;138649;-85
2022/08/16 11:30:58;;;;;;;7.90;5.90;;;;;;;35.88;55.67;99791.14;658786;1277;139085;-83
2022/08/16 11:46:06;;;;;;;10.00;6.50;;;;;;;35.17;55.25;99789.75;660245;1277;140480;-83
2022/08/16 12:01:31;;;;;;;9.60;5.90;;;;;;;36.03;53.51;99783.55;658196;1277;138824;-82
2022/08/16 12:16:57;;;;;;;8.50;6.60;;;;;;;36.37;53.03;99783.05;657683;1277;138561;-81
2022/08/16 12:32:00;;;;;;;;;;;;;;;35.72;53.62;99771.68;657460;1277;139280;-81
2022/08/16 13:02:48;;;;;;;7.20;6.50;;;;;;;35.52;55.06;99747.88;661369;1277;139302;-82
2022/08/16 13:17:55;;;;;;;7.00;6.20;;;;;;;36.72;53.39;99729.06;663631;1277;138375;-80
2022/08/16 13:33:06;;;;;;;7.80;6.30;;;;;;;37.04;51.66;99722.38;659958;1277;139281;-81
2022/08/16 13:48:17;;;;;;;6.70;5.50;;;;;;;37.38;51.02;99709.23;661121;1277;139591;-79
2022/08/16 14:03:27;;;;;;;7.40;5.40;;;;;;;37.81;49.79;99686.18;663275;1277;139105;-81
2022/08/16 14:18:32;;;;;;;7.80;5.50;;;;;;;37.91;50.08;99683.05;659281;1277;138967;-80
2022/08/16 14:33:38;;;;;;;8.00;5.40;;;;;;;43.08;44.72;99691.04;662552;1277;139885;-81
2022/08/16 14:48:42;;;;;;;6.80;4.90;;;;;;;46.42;41.24;99703.59;659304;1275;139184;-80
2022/08/16 15:03:47;;;;;;;13.20;7.70;;;;;;;44.66;41.49;99698.27;658272;1277;139584;-80
2022/08/16 15:18:51;;;;;;;9.10;5.10;;;;;;;41.39;43.65;99711.77;658304;1277;140606;-80
2022/08/16 15:33:56;;;;;;;9.20;4.70;;;;;;;39.54;43.62;99717.25;656441;1277;140671;-79
2022/08/16 15:49:01;;;;;;;9.80;5.50;;;;;;;35.94;47.05;99730.09;658764;1277;138036;-80
2022/08/16 16:04:07;;;;;;;10.00;4.90;;;;;;;34.16;49.64;99757.98;658554;1277;139358;-80
2022/08/16 16:19:11;;;;;;;12.60;8.10;;;;;;;33.05;55.18;99778.42;659314;1277;139568;-79
2022/08/16 16:34:21;;;;;;;9.60;6.50;;;;;;;30.77;63.04;99789.55;656946;1277;138527;-81
2022/08/16 16:49:24;;;;;;;11.40;8.50;;;;;;;30.26;65.07;99790.17;657651;1277;139170;-83
2022/08/16 17:04:28;;;;;;;13.10;9.00;;;;;;;30.33;65.06;99779.64;656306;1277;139315;-81
2022/08/16 17:19:36;;;;;;;19.30;14.10;;;;;;;30.39;64.67;99788.09;655983;1277;139750;-78
2022/08/16 17:34:45;;;;;;;57.00;37.10;;;;;;;30.11;66.18;99794.18;656595;1277;139969;-82
2022/08/16 17:49:52;;;;;;;25.30;13.30;;;;;;;29.61;68.53;99799.90;657031;1277;138820;-82
2022/08/16 18:04:55;;;;;;;28.30;15.40;;;;;;;29.18;70.25;99791.62;656762;1277;140100;-81
2022/08/16 18:19:59;;;;;;;317.90;124.60;;;;;;;28.89;71.83;99802.48;657435;1277;138518;-79
2022/08/16 18:35:03;;;;;;;45.10;24.60;;;;;;;28.88;72.67;99822.33;656922;1277;140224;-79
2022/08/16 18:50:07;;;;;;;25.00;13.90;;;;;;;28.83;72.88;99837.40;657180;1277;139948;-80
2022/08/16 19:05:26;;;;;;;48.20;25.70;;;;;;;28.73;73.54;99864.73;656389;1277;138532;-79
2022/08/16 19:20:30;;;;;;;25.70;15.80;;;;;;;28.47;74.91;99872.40;656806;1277;139723;-79
2022/08/16 19:35:35;;;;;;;26.40;13.90;;;;;;;28.18;76.97;99870.66;656641;1277;140065;-80
2022/08/16 19:50:39;;;;;;;34.20;20.30;;;;;;;27.86;79.52;99871.60;659558;1277;139738;-79
2022/08/16 20:05:44;;;;;;;23.50;16.60;;;;;;;27.59;80.03;99873.80;656662;1277;139448;-80
2022/08/16 20:20:49;;;;;;;51.10;27.40;;;;;;;27.30;83.47;99877.20;656483;1277;138723;-79
2022/08/16 20:35:53;;;;;;;37.00;22.50;;;;;;;27.05;84.06;99878.42;655881;1277;139998;-80
2022/08/16 20:50:57;;;;;;;24.30;16.40;;;;;;;26.89;85.18;99875.89;656008;1277;139795;-79
2022/08/16 21:06:01;;;;;;;33.40;18.60;;;;;;;26.72;86.74;99881.30;656245;1277;139779;-79
2022/08/16 21:21:05;;;;;;;26.00;15.90;;;;;;;26.48;87.61;99888.48;655257;1277;140238;-80
2022/08/16 21:36:10;;;;;;;22.50;14.90;;;;;;;26.37;86.77;99890.18;659765;1277;139302;-80
2022/08/16 21:51:14;;;;;;;27.40;13.70;;;;;;;25.90;89.26;99890.38;656354;1277;1296304;-80
2022/08/16 22:06:18;;;;;;;22.70;15.50;;;;;;;25.77;91.27;99889.96;655788;1277;139841;-80
2022/08/16 22:21:22;;;;;;;22.40;15.10;;;;;;;25.64;92.43;99896.06;655568;1277;139871;-80
2022/08/16 22:36:25;;;;;;;26.20;17.10;;;;;;;25.43;94.05;99897.33;655686;1277;141203;-81
2022/08/16 22:51:30;;;;;;;20.90;14.90;;;;;;;25.15;94.42;99895.16;656494;1277;139844;-81
2022/08/16 23:06:33;;;;;;;28.50;16.80;;;;;;;24.86;95.78;99887.65;656332;1276;140296;-80
2022/08/16 23:21:39;;;;;;;20.30;15.00;;;;;;;24.50;96.89;99872.70;656913;1277;139158;-80
2022/08/16 23:36:43;;;;;;;23.90;15.40;;;;;;;24.19;98.11;99872.89;656763;1277;139255;-79
2022/08/16 23:51:48;;;;;;;17.90;14.40;;;;;;;23.56;99.84;99875.69;655900;1277;139632;-79
